Malvern, Iowa
Current Conditions -  °F | °C
As of 2:35 PM on Tuesday 21 Oct 2014 (Local Time) from KRDK Reporting Station
Clear Clear  
Wind Chill: 72°   Ceiling: Unl
Heat Index: 72°   Visibility: 10mi
Dew Point: 41°   Wind: 7mph
Humidity: 33%   Direction: 150°SSE
Pressure: 30.07"   Gusts: NA
Location:  41°N, 95.59°W
Report Text: KRDK 211935Z AUTO 15006KT 10SM CLR 22/05 A3007 RMK AO2
Loading
Personal Weather Stations






























Interactive Weather Map
Tropical Storm Tracking
New forecast layout! Learn more

10-Day Weather Forecast

Advertisements
Track Severe Weather on mobile